createdAt,value
2018-12-19T00:00:03.882Z,6.83
2018-12-19T00:02:32.046Z,5.90
2018-12-19T00:05:00.171Z,5.20
2018-12-19T00:07:28.321Z,6.20
2018-12-19T00:09:56.445Z,7.50
2018-12-19T00:12:24.592Z,7.83
2018-12-19T00:14:52.742Z,6.93
2018-12-19T00:17:20.962Z,6.10
2018-12-19T00:19:49.111Z,5.53
2018-12-19T00:22:17.304Z,6.33
2018-12-19T00:24:45.465Z,5.43
2018-12-19T00:27:13.635Z,6.17
2018-12-19T00:29:41.849Z,4.97
2018-12-19T00:32:10.058Z,5.10
2018-12-19T00:34:38.198Z,6.07
2018-12-19T00:37:06.337Z,6.03
2018-12-19T00:39:34.630Z,8.07
2018-12-19T00:42:02.765Z,4.70
2018-12-19T00:44:30.941Z,5.10
2018-12-19T00:46:59.073Z,6.03
2018-12-19T00:49:27.286Z,5.27
2018-12-19T00:51:55.413Z,5.20
2018-12-19T00:54:23.556Z,6.37
2018-12-19T00:56:51.842Z,5.10
2018-12-19T00:59:19.991Z,5.80
2018-12-19T01:01:48.184Z,5.97
2018-12-19T01:04:16.331Z,6.10
2018-12-19T01:06:44.541Z,6.17
2018-12-19T01:09:15.880Z,4.57
2018-12-19T01:11:42.812Z,7.50
2018-12-19T01:14:10.980Z,7.27
2018-12-19T01:16:39.179Z,5.00
2018-12-19T01:19:07.441Z,5.17
2018-12-19T01:21:35.573Z,5.10
2018-12-19T01:24:03.853Z,4.43
2018-12-19T01:26:31.989Z,6.40
2018-12-19T01:29:00.129Z,5.47
2018-12-19T01:31:28.266Z,5.93
2018-12-19T01:33:56.405Z,5.43
2018-12-19T01:36:24.617Z,5.80
2018-12-19T01:38:52.775Z,7.63
2018-12-19T01:41:20.922Z,5.10
2018-12-19T01:43:49.095Z,4.97
2018-12-19T01:46:17.222Z,4.83
2018-12-19T01:48:45.429Z,5.53
2018-12-19T01:51:13.770Z,5.27
2018-12-19T01:53:42.172Z,5.67
2018-12-19T01:56:10.302Z,7.53
2018-12-19T01:58:38.449Z,7.23
2018-12-19T02:01:06.587Z,5.80
2018-12-19T02:03:34.860Z,5.57
2018-12-19T02:06:02.977Z,5.93
2018-12-19T02:08:31.198Z,5.37
2018-12-19T02:10:59.351Z,5.80
2018-12-19T02:13:27.476Z,7.00
2018-12-19T02:15:55.609Z,5.40
2018-12-19T02:18:23.741Z,6.37
2018-12-19T02:20:55.884Z,5.97
2018-12-19T02:23:24.188Z,5.93
2018-12-19T02:25:52.345Z,5.77
2018-12-19T02:28:20.477Z,5.60
2018-12-19T02:30:48.618Z,6.07
2018-12-19T02:33:16.798Z,5.97
2018-12-19T02:35:44.984Z,5.47
2018-12-19T02:38:13.180Z,6.40
2018-12-19T02:40:41.389Z,7.70
2018-12-19T02:43:09.573Z,6.43
2018-12-19T02:45:37.714Z,6.77
2018-12-19T02:48:05.841Z,5.87
2018-12-19T02:50:34.099Z,7.37
2018-12-19T02:53:02.216Z,7.53
2018-12-19T02:55:30.425Z,7.30
2018-12-19T02:57:58.629Z,6.33
2018-12-19T03:00:26.869Z,6.43
2018-12-19T03:02:55.076Z,8.63
2018-12-19T03:05:23.281Z,7.03
2018-12-19T03:07:51.491Z,6.90
2018-12-19T03:10:19.635Z,7.50
2018-12-19T03:12:47.839Z,8.33
2018-12-19T03:15:16.062Z,9.13
2018-12-19T03:17:44.194Z,7.03
2018-12-19T03:20:12.406Z,7.67
2018-12-19T03:22:40.549Z,7.27
2018-12-19T03:25:08.841Z,8.33
2018-12-19T03:27:36.961Z,8.63
2018-12-19T03:30:05.447Z,7.97
2018-12-19T03:32:33.751Z,7.60
2018-12-19T03:35:02.055Z,8.37
2018-12-19T03:37:30.195Z,8.97
2018-12-19T03:39:58.357Z,7.73
2018-12-19T03:42:26.493Z,7.77
2018-12-19T03:44:54.705Z,7.90
2018-12-19T03:47:22.851Z,7.77
2018-12-19T03:49:51.121Z,9.23
2018-12-19T03:52:19.376Z,8.13
2018-12-19T03:54:47.591Z,8.80
2018-12-19T03:57:15.803Z,7.90
2018-12-19T03:59:44.009Z,9.23
2018-12-19T04:02:12.126Z,7.53
2018-12-19T04:04:40.272Z,10.97
2018-12-19T04:07:08.468Z,9.83
2018-12-19T04:09:36.638Z,9.47
2018-12-19T04:12:04.921Z,10.40
2018-12-19T04:14:33.203Z,8.20
2018-12-19T04:17:01.370Z,10.60
2018-12-19T04:19:29.587Z,10.43
2018-12-19T04:21:57.837Z,10.17
2018-12-19T04:24:25.973Z,10.03
2018-12-19T04:26:54.122Z,10.50
2018-12-19T04:29:22.259Z,11.03
2018-12-19T04:31:50.415Z,11.43
2018-12-19T04:34:18.615Z,10.20
2018-12-19T04:36:46.749Z,9.97
2018-12-19T04:39:14.977Z,11.47
2018-12-19T04:41:43.118Z,9.30
2018-12-19T04:44:11.295Z,11.37
2018-12-19T04:46:39.507Z,10.97
2018-12-19T04:49:07.840Z,11.93
2018-12-19T04:51:35.993Z,11.90
2018-12-19T04:54:04.198Z,11.90
2018-12-19T04:56:32.341Z,12.80
2018-12-19T04:59:00.498Z,10.10
2018-12-19T05:01:28.729Z,11.20
2018-12-19T05:03:56.882Z,10.43
2018-12-19T05:06:25.101Z,12.67
2018-12-19T05:08:53.352Z,12.33
2018-12-19T05:11:21.505Z,12.90
2018-12-19T05:13:49.658Z,12.20
2018-12-19T05:16:17.824Z,12.60
2018-12-19T05:18:45.991Z,11.87
2018-12-19T05:21:14.149Z,13.60
2018-12-19T05:23:42.298Z,12.07
2018-12-19T05:26:10.449Z,12.63
2018-12-19T05:28:38.577Z,12.87
2018-12-19T05:31:06.718Z,13.20
2018-12-19T05:33:34.925Z,11.80
2018-12-19T05:36:03.146Z,11.50
2018-12-19T05:38:31.279Z,13.27
2018-12-19T05:40:59.421Z,12.73
2018-12-19T05:43:27.555Z,12.97
2018-12-19T05:45:55.775Z,12.93
2018-12-19T05:48:23.897Z,12.87
2018-12-19T05:50:52.043Z,12.73
2018-12-19T05:53:20.261Z,12.40
2018-12-19T05:55:48.470Z,12.37
2018-12-19T05:58:16.594Z,13.10
2018-12-19T06:00:44.731Z,12.27
2018-12-19T06:03:12.879Z,12.20
2018-12-19T06:05:41.129Z,12.83
2018-12-19T06:08:09.344Z,12.23
2018-12-19T06:10:37.494Z,12.83
2018-12-19T06:13:05.658Z,12.77
2018-12-19T06:15:33.800Z,13.00
2018-12-19T06:18:01.941Z,12.77
2018-12-19T06:20:30.165Z,12.63
2018-12-19T06:22:58.310Z,13.63
2018-12-19T06:25:26.452Z,12.93
2018-12-19T06:27:54.682Z,12.27
2018-12-19T06:30:23.104Z,11.67
2018-12-19T06:32:51.637Z,12.03
2018-12-19T06:35:19.777Z,13.37
2018-12-19T06:37:47.934Z,14.63
2018-12-19T06:40:16.149Z,12.43
2018-12-19T06:42:44.375Z,13.40
2018-12-19T06:45:12.575Z,14.60
2018-12-19T06:47:40.733Z,12.50
2018-12-19T06:50:09.572Z,14.20
2018-12-19T06:52:37.808Z,13.37
2018-12-19T06:55:06.220Z,13.83
2018-12-19T06:57:34.430Z,12.97
2018-12-19T07:00:02.710Z,15.07
2018-12-19T07:02:30.865Z,16.13
2018-12-19T07:04:58.996Z,14.57
2018-12-19T07:07:27.225Z,18.77
2018-12-19T07:09:55.372Z,17.50
2018-12-19T07:12:23.601Z,17.37
2018-12-19T07:14:52.017Z,17.47
2018-12-19T07:17:20.160Z,17.37
2018-12-19T07:19:48.291Z,19.73
2018-12-19T07:22:16.429Z,16.40
2018-12-19T07:24:44.562Z,18.40
2018-12-19T07:27:12.737Z,18.20
2018-12-19T07:29:40.863Z,17.47
2018-12-19T07:32:09.010Z,19.03
2018-12-19T07:34:37.150Z,19.10
2018-12-19T07:37:05.291Z,19.20
2018-12-19T07:39:33.901Z,20.37
2018-12-19T07:42:02.032Z,20.07
2018-12-19T07:44:30.169Z,21.23
2018-12-19T07:46:58.460Z,18.77
2018-12-19T07:49:26.602Z,18.87
2018-12-19T07:51:54.812Z,20.47
2018-12-19T07:54:23.031Z,20.67
2018-12-19T07:56:51.237Z,19.97
2018-12-19T07:59:19.389Z,18.43
2018-12-19T08:01:47.557Z,20.73
2018-12-19T08:04:16.165Z,19.27
2018-12-19T08:06:44.382Z,21.27
2018-12-19T08:09:12.544Z,19.53
2018-12-19T08:11:40.741Z,21.40
2018-12-19T08:14:09.061Z,21.90
2018-12-19T08:16:37.204Z,19.10
2018-12-19T08:19:05.336Z,19.30
2018-12-19T08:21:33.545Z,21.30
2018-12-19T08:24:01.778Z,19.53
2018-12-19T08:26:29.962Z,19.20
2018-12-19T08:28:58.098Z,19.90
2018-12-19T08:31:26.241Z,20.60
2018-12-19T08:33:54.453Z,23.43
2018-12-19T08:36:22.591Z,21.67
2018-12-19T08:38:50.729Z,21.47
2018-12-19T08:41:18.873Z,19.13
2018-12-19T08:43:47.021Z,22.93
2018-12-19T08:46:15.156Z,21.30
2018-12-19T08:48:43.333Z,18.93
2018-12-19T08:51:11.474Z,19.30
2018-12-19T08:53:39.691Z,21.03
2018-12-19T08:56:07.884Z,22.90
2018-12-19T08:58:36.031Z,21.07
2018-12-19T09:01:04.301Z,21.10
2018-12-19T09:03:32.449Z,20.63
2018-12-19T09:06:00.584Z,22.17
2018-12-19T09:08:28.729Z,22.40
2018-12-19T09:10:56.932Z,20.50
2018-12-19T09:13:25.198Z,19.13
2018-12-19T09:15:53.427Z,19.63
2018-12-19T09:18:21.581Z,20.33
2018-12-19T09:20:49.714Z,20.70
2018-12-19T09:23:17.866Z,21.23
2018-12-19T09:25:46.006Z,18.33
2018-12-19T09:28:14.156Z,20.63
2018-12-19T09:30:42.426Z,18.63
2018-12-19T09:33:10.560Z,18.03
2018-12-19T09:35:38.851Z,22.23
2018-12-19T09:38:06.982Z,21.90
2018-12-19T09:40:35.129Z,19.63
2018-12-19T09:43:03.354Z,21.60
2018-12-19T09:45:31.566Z,16.80
2018-12-19T09:47:59.725Z,18.00
2018-12-19T09:50:27.846Z,19.07
2018-12-19T09:52:55.994Z,17.53
2018-12-19T09:55:24.131Z,20.07
2018-12-19T09:57:52.338Z,19.87
2018-12-19T10:00:28.145Z,19.67
2018-12-19T10:02:56.531Z,18.80
2018-12-19T10:05:24.809Z,19.80
2018-12-19T10:07:53.013Z,18.13
2018-12-19T10:10:21.150Z,17.27
2018-12-19T10:12:49.277Z,18.57
2018-12-19T10:15:17.501Z,19.97
2018-12-19T10:17:45.619Z,19.00
2018-12-19T10:20:13.841Z,19.30
2018-12-19T10:22:41.986Z,20.07
2018-12-19T10:25:14.100Z,18.97
2018-12-19T10:27:42.481Z,18.37
2018-12-19T10:30:12.600Z,18.00
2018-12-19T10:32:41.151Z,18.33
2018-12-19T10:35:10.778Z,18.80
2018-12-19T10:37:38.990Z,18.80
2018-12-19T10:40:11.350Z,18.13
2018-12-19T10:42:39.473Z,18.13
2018-12-19T10:45:10.134Z,19.80
2018-12-19T10:47:38.333Z,18.60
2018-12-19T10:50:09.046Z,17.37
2018-12-19T10:52:37.174Z,18.07
2018-12-19T10:55:07.545Z,17.80
2018-12-19T10:57:35.810Z,17.60
2018-12-19T11:00:09.449Z,18.73
2018-12-19T11:02:37.660Z,19.10
2018-12-19T11:05:05.960Z,18.43
2018-12-19T11:07:34.161Z,18.70
2018-12-19T11:10:02.454Z,22.33
2018-12-19T11:12:30.579Z,17.43
2018-12-19T11:14:58.734Z,18.00
2018-12-19T11:17:26.869Z,17.80
2018-12-19T11:19:55.101Z,18.00
2018-12-19T11:22:23.304Z,20.40
2018-12-19T11:24:51.453Z,18.10
2018-12-19T11:27:19.664Z,18.57
2018-12-19T11:29:47.875Z,19.67
2018-12-19T11:32:16.021Z,18.80
2018-12-19T11:34:44.232Z,17.43
2018-12-19T11:37:12.353Z,17.27
2018-12-19T11:39:40.489Z,14.03
2018-12-19T11:42:08.697Z,17.47
2018-12-19T11:44:36.828Z,18.57
2018-12-19T11:47:05.048Z,19.23
2018-12-19T11:49:33.212Z,15.90
2018-12-19T11:52:01.354Z,18.00
2018-12-19T11:54:29.493Z,17.03
2018-12-19T11:56:57.629Z,17.47
2018-12-19T11:59:25.850Z,17.30
2018-12-19T12:01:53.965Z,16.87
2018-12-19T12:04:22.394Z,17.37
2018-12-19T12:06:50.596Z,18.67
2018-12-19T12:09:18.742Z,17.40
2018-12-19T12:11:46.892Z,15.10
2018-12-19T12:14:15.120Z,17.57
2018-12-19T12:16:43.261Z,15.67
2018-12-19T12:19:11.485Z,16.67
2018-12-19T12:21:39.641Z,15.17
2018-12-19T12:24:07.836Z,14.90
2018-12-19T12:26:37.077Z,16.50
2018-12-19T12:29:05.369Z,13.90
2018-12-19T12:31:33.503Z,15.10
2018-12-19T12:34:01.636Z,16.60
2018-12-19T12:36:30.082Z,17.70
2018-12-19T12:38:58.298Z,15.67
2018-12-19T12:41:26.476Z,16.00
2018-12-19T12:43:54.684Z,15.10
2018-12-19T12:46:22.912Z,15.80
2018-12-19T12:48:51.096Z,15.30
2018-12-19T12:51:19.367Z,13.53
2018-12-19T12:53:47.526Z,15.83
2018-12-19T12:56:15.781Z,17.40
2018-12-19T12:58:43.968Z,15.57
2018-12-19T13:01:12.293Z,16.67
2018-12-19T13:03:40.511Z,14.73
2018-12-19T13:06:08.724Z,12.80
2018-12-19T13:08:36.937Z,12.17
2018-12-19T13:11:05.244Z,12.03
2018-12-19T13:13:33.411Z,11.93
2018-12-19T13:16:01.635Z,10.80
2018-12-19T13:18:29.838Z,10.30
2018-12-19T13:20:57.990Z,10.43
2018-12-19T13:23:26.898Z,9.43
2018-12-19T13:25:55.242Z,9.63
2018-12-19T13:28:23.361Z,8.73
2018-12-19T13:30:51.566Z,10.10
2018-12-19T13:33:19.770Z,8.47
2018-12-19T13:35:47.986Z,10.07
2018-12-19T13:38:16.184Z,10.60
2018-12-19T13:40:44.404Z,10.70
2018-12-19T13:43:12.521Z,10.80
2018-12-19T13:45:40.769Z,10.67
2018-12-19T13:48:08.896Z,11.07
2018-12-19T13:50:37.108Z,9.77
2018-12-19T13:53:05.317Z,13.40
2018-12-19T13:55:33.700Z,11.10
2018-12-19T13:58:07.038Z,11.30
2018-12-19T14:00:32.166Z,12.13
2018-12-19T14:03:00.386Z,13.60
2018-12-19T14:05:28.516Z,12.97
2018-12-19T14:07:56.741Z,13.10
2018-12-19T14:10:24.889Z,13.10
2018-12-19T14:12:53.035Z,14.50
2018-12-19T14:15:21.284Z,16.17
2018-12-19T14:17:49.505Z,14.17
2018-12-19T14:20:17.653Z,19.57
2018-12-19T14:22:45.793Z,16.07
2018-12-19T14:25:14.145Z,13.83
2018-12-19T14:27:42.308Z,17.03
2018-12-19T14:30:10.628Z,16.40
2018-12-19T14:32:38.777Z,14.07
2018-12-19T14:35:07.014Z,14.37
2018-12-19T14:37:35.154Z,15.37
2018-12-19T14:40:03.834Z,17.27
2018-12-19T14:42:32.041Z,15.43
2018-12-19T14:45:00.182Z,18.20
2018-12-19T14:47:28.345Z,16.27
2018-12-19T14:49:56.493Z,16.60
2018-12-19T14:52:24.740Z,16.70
2018-12-19T14:54:52.877Z,16.70
2018-12-19T14:57:21.023Z,17.33
2018-12-19T14:59:49.145Z,15.67
2018-12-19T15:02:17.377Z,17.80
2018-12-19T15:04:45.585Z,17.57
2018-12-19T15:07:13.829Z,17.77
2018-12-19T15:09:42.093Z,15.33
2018-12-19T15:12:10.336Z,15.97
2018-12-19T15:14:38.557Z,16.50
2018-12-19T15:17:06.786Z,18.13
2018-12-19T15:19:34.932Z,16.30
2018-12-19T15:22:03.221Z,16.73
2018-12-19T15:24:31.373Z,14.43
2018-12-19T15:26:59.554Z,14.67
2018-12-19T15:29:27.698Z,16.97
2018-12-19T15:31:55.838Z,16.60
2018-12-19T15:34:24.058Z,14.23
2018-12-19T15:36:52.343Z,15.50
2018-12-19T15:39:20.726Z,13.70
2018-12-19T15:41:48.954Z,15.60
2018-12-19T15:44:17.223Z,15.13
2018-12-19T15:46:45.446Z,15.97
2018-12-19T15:49:13.666Z,16.80
2018-12-19T15:51:41.805Z,19.83
2018-12-19T15:54:09.969Z,15.90
2018-12-19T15:56:38.133Z,17.97
2018-12-19T15:59:06.365Z,17.40
2018-12-19T16:01:34.577Z,15.90
2018-12-19T16:04:02.815Z,16.00
2018-12-19T16:06:31.053Z,17.17
2018-12-19T16:08:59.195Z,16.30
2018-12-19T16:11:27.357Z,15.47
2018-12-19T16:13:55.590Z,15.20
2018-12-19T16:16:23.817Z,16.07
2018-12-19T16:18:52.022Z,16.83
2018-12-19T16:21:20.169Z,14.50
2018-12-19T16:23:48.364Z,15.57
2018-12-19T16:26:16.514Z,18.07
2018-12-19T16:28:44.828Z,15.23
2018-12-19T16:31:13.053Z,17.33
2018-12-19T16:33:41.261Z,17.13
2018-12-19T16:36:09.489Z,18.07
2018-12-19T16:38:37.766Z,18.10
2018-12-19T16:41:06.007Z,16.43
2018-12-19T16:43:34.137Z,18.30
2018-12-19T16:46:02.372Z,18.57
2018-12-19T16:48:30.565Z,18.63
2018-12-19T16:50:58.761Z,18.37
2018-12-19T16:53:27.169Z,16.30
2018-12-19T16:55:55.417Z,17.30
2018-12-19T16:58:23.677Z,16.77
2018-12-19T17:00:51.943Z,16.73
2018-12-19T17:03:20.166Z,18.17
2018-12-19T17:05:48.450Z,17.80
2018-12-19T17:08:16.743Z,15.37
2018-12-19T17:10:45.057Z,16.70
2018-12-19T17:13:13.347Z,14.43
2018-12-19T17:15:41.589Z,17.87
2018-12-19T17:18:10.757Z,17.07
2018-12-19T17:20:38.966Z,21.00
2018-12-19T17:23:07.217Z,19.03
2018-12-19T17:25:35.476Z,18.40
2018-12-19T17:28:03.861Z,19.37
2018-12-19T17:30:32.079Z,16.77
2018-12-19T17:33:00.445Z,20.03
2018-12-19T17:35:28.598Z,18.77
2018-12-19T17:37:56.829Z,18.27
2018-12-19T17:40:24.982Z,21.30
2018-12-19T17:42:59.222Z,18.77
2018-12-19T17:45:23.531Z,20.23
2018-12-19T17:47:51.734Z,20.33
2018-12-19T17:50:20.026Z,19.87
2018-12-19T17:52:48.473Z,19.77
2018-12-19T17:55:16.731Z,18.77
2018-12-19T17:57:44.938Z,18.00
2018-12-19T18:00:13.261Z,16.90
2018-12-19T18:02:41.532Z,20.30
2018-12-19T18:05:09.897Z,18.90
2018-12-19T18:07:38.222Z,21.07
2018-12-19T18:10:06.627Z,20.33
2018-12-19T18:12:35.194Z,18.00
2018-12-19T18:15:04.053Z,19.23
2018-12-19T18:17:32.497Z,19.03
2018-12-19T18:20:00.797Z,18.70
2018-12-19T18:22:29.228Z,20.13
2018-12-19T18:24:57.498Z,20.03
2018-12-19T18:27:25.982Z,20.13
2018-12-19T18:29:54.668Z,21.20
2018-12-19T18:32:23.429Z,20.20
2018-12-19T18:34:53.482Z,21.13
2018-12-19T18:37:22.167Z,19.83
2018-12-19T18:39:50.443Z,21.50
2018-12-19T18:42:20.048Z,22.53
2018-12-19T18:44:48.947Z,22.47
2018-12-19T18:47:17.330Z,21.53
2018-12-19T18:49:45.788Z,22.83
2018-12-19T18:52:14.028Z,21.47
2018-12-19T18:54:42.684Z,20.17
2018-12-19T18:57:11.269Z,20.83
2018-12-19T18:59:40.011Z,22.20
2018-12-19T19:02:08.823Z,23.90
2018-12-19T19:04:37.553Z,24.17
2018-12-19T19:07:06.077Z,23.07
2018-12-19T19:09:35.071Z,24.20
2018-12-19T19:12:03.838Z,23.27
2018-12-19T19:14:32.132Z,22.27
2018-12-19T19:17:00.449Z,23.87
2018-12-19T19:19:28.807Z,23.53
2018-12-19T19:21:57.080Z,22.80
2018-12-19T19:24:25.352Z,19.70
2018-12-19T19:26:53.705Z,21.97
2018-12-19T19:29:21.984Z,23.93
2018-12-19T19:31:50.338Z,22.10
2018-12-19T19:34:24.864Z,20.53
2018-12-19T19:36:48.694Z,21.60
2018-12-19T19:39:17.956Z,21.53
2018-12-19T19:41:46.420Z,21.73
2018-12-19T19:44:14.711Z,21.87
2018-12-19T19:46:43.070Z,22.07
2018-12-19T19:49:11.354Z,19.83
2018-12-19T19:51:39.720Z,20.83
2018-12-19T19:54:07.985Z,23.07
2018-12-19T19:56:36.275Z,22.00
2018-12-19T19:59:04.599Z,22.10
2018-12-19T20:01:32.921Z,20.40
2018-12-19T20:04:01.093Z,19.93
2018-12-19T20:06:29.337Z,20.73
2018-12-19T20:08:57.574Z,21.67
2018-12-19T20:11:25.944Z,20.37
2018-12-19T20:13:54.310Z,25.37
2018-12-19T20:21:18.699Z,22.50
2018-12-19T20:23:46.924Z,21.33
2018-12-19T20:26:15.177Z,24.57
2018-12-19T20:28:43.461Z,19.93
2018-12-19T20:31:11.677Z,22.30
2018-12-19T20:33:40.001Z,20.80
2018-12-19T20:36:08.253Z,21.33
2018-12-19T20:38:36.455Z,22.63
2018-12-19T20:41:04.917Z,21.10
2018-12-19T20:43:39.722Z,22.03
2018-12-19T20:46:03.577Z,22.70
2018-12-19T20:48:31.817Z,22.50
2018-12-19T20:51:00.068Z,21.50
2018-12-19T20:53:29.346Z,20.00
2018-12-19T20:56:03.585Z,23.73
2018-12-19T20:58:27.870Z,22.27
2018-12-19T21:00:56.233Z,21.00
2018-12-19T21:03:24.439Z,24.00
2018-12-19T21:05:53.866Z,21.53
2018-12-19T21:08:22.211Z,21.47
2018-12-19T21:10:50.464Z,22.53
2018-12-19T21:13:18.724Z,21.07
2018-12-19T21:15:47.141Z,21.30
2018-12-19T21:18:20.926Z,22.03
2018-12-19T21:20:49.141Z,19.83
2018-12-19T21:23:17.523Z,23.10
2018-12-19T21:25:45.735Z,21.70
2018-12-19T21:28:13.985Z,23.77
2018-12-19T21:30:42.185Z,22.00
2018-12-19T21:33:13.957Z,23.67
2018-12-19T21:35:40.592Z,21.20
2018-12-19T21:38:08.850Z,21.97
2018-12-19T21:40:38.211Z,24.50
2018-12-19T21:43:07.427Z,26.23
2018-12-19T21:45:36.779Z,21.23
2018-12-19T21:48:05.016Z,20.17
2018-12-19T21:50:33.286Z,19.13
2018-12-19T21:53:02.626Z,19.37
2018-12-19T21:55:30.965Z,20.37
2018-12-19T21:57:59.250Z,20.73
2018-12-19T22:00:34.233Z,22.37
2018-12-19T22:03:06.916Z,21.17
2018-12-19T22:05:37.142Z,22.03
2018-12-19T22:08:05.647Z,27.03
2018-12-19T22:10:34.057Z,21.50
2018-12-19T22:13:02.447Z,21.70
2018-12-19T22:15:30.703Z,19.63
2018-12-19T22:18:04.521Z,21.43
2018-12-19T22:20:32.823Z,21.70
2018-12-19T22:23:01.111Z,20.63
2018-12-19T22:25:29.392Z,20.93
2018-12-19T22:27:57.659Z,24.30
2018-12-19T22:30:25.864Z,22.80
2018-12-19T22:32:54.030Z,23.27
2018-12-19T22:35:22.360Z,25.40
2018-12-19T22:37:50.673Z,19.97
2018-12-19T22:40:18.874Z,21.80
2018-12-19T22:42:47.235Z,21.33
2018-12-19T22:45:15.656Z,21.30
2018-12-19T22:47:43.985Z,22.13
2018-12-19T22:50:12.262Z,25.33
2018-12-19T22:52:40.550Z,25.93
2018-12-19T22:55:10.010Z,23.87
2018-12-19T22:57:38.334Z,23.77
2018-12-19T23:00:12.448Z,26.73
2018-12-19T23:02:46.331Z,26.40
2018-12-19T23:05:17.530Z,25.70
2018-12-19T23:07:45.661Z,28.10
2018-12-19T23:10:13.916Z,27.17
2018-12-19T23:12:42.189Z,25.33
2018-12-19T23:15:10.496Z,25.63
2018-12-19T23:17:40.232Z,25.37
2018-12-19T23:20:10.045Z,28.43
2018-12-19T23:22:38.330Z,29.60
2018-12-19T23:25:07.330Z,25.87
2018-12-19T23:27:35.576Z,26.57
2018-12-19T23:30:05.500Z,26.93
2018-12-19T23:32:33.672Z,24.67
2018-12-19T23:35:01.980Z,26.63
2018-12-19T23:37:30.208Z,23.63
2018-12-19T23:39:58.440Z,27.70
2018-12-19T23:42:26.585Z,25.07
2018-12-19T23:44:54.745Z,27.43
2018-12-19T23:47:22.916Z,25.40
2018-12-19T23:49:51.156Z,28.57
2018-12-19T23:52:19.446Z,27.10
2018-12-19T23:54:47.601Z,26.87
2018-12-19T23:57:15.979Z,24.87
2018-12-19T23:59:44.256Z,24.43
